Etusivu
METAR-TAF:

METAR-TAF

Lentoasemat :

Skellefteå, Ruotsi

Skellefteån lentoasema

Leveyspiiri: 64-38N, Pituuspiiri: 021-05E, korkeus merenpinnasta: 49 m

Tämänhetkinen sää

Tämä raportti tehtiin 12 tuntia ja 36 minuuttia sitten, kello 14.50 UTC
tyyntä
Lämpötila -14°C
Kosteus 85%
Ilmanpaine 1030 hPa
Näkyvyys 10 km tai enemmän
Muutamia pilviä 2500 ft:n korkeudessa

METAR: ESNS 201450Z 00000KT 9999 FEW025 M14/M16 Q1030

Aika: 04:26 (03:26 UTC)

Sääennuste

Tämä raportti tehtiin 12 tuntia ja 56 minuuttia sitten, kello 14.30 UTC
Ennuste voimassa 20. päivästä klo 15 UTC - 20. päivään klo 23 UTC
Tuuli 2 kn pohjoisen/luoteesta
Näkyvyys 10 km tai enemmän
ei pilviä alle 1500 m:ssä eikä cumulonimbus-pilviä

TAF: ESNS 201430Z 2015/2023 34002KT CAVOK

Säähavainnot ja -ennusteet yli 4000 lentoasemalta (METAR- ja TAF-raportit).

Käytössä olevat sääasemat on merkitty karttaan keltaisilla ja punaisilla pisteillä.

Aseta hiiri pisteen päälle nähdäksesi sääaseman nimen.

Klikkaa sitten nähdäksesi säähavainnot ja -ennusteet.

Kartan vaihtaminen: klikkaa mustalla rastilla varustettuja vihreitä pisteitä, niin voit zoomata sisään; viivalla varustettua vihreää pistettä, niin voit zoomata ulos tai vihreitä nuolia, niin pääset viereisille kartoille.


METAR-TAF: